sensor_id;sensor_type;location;lat;lon;timestamp;pressure;altitude;pressure_sealevel;temperature;humidity
62946;BME280;52164;52.212;-1.010;2023-02-22T00:02:10;100264.73;;;6.87;79.77
62946;BME280;52164;52.212;-1.010;2023-02-22T00:04:37;100260.83;;;6.88;79.92
62946;BME280;52164;52.212;-1.010;2023-02-22T00:07:04;100256.23;;;6.91;79.85
62946;BME280;52164;52.212;-1.010;2023-02-22T00:09:33;100254.30;;;6.93;79.93
62946;BME280;52164;52.212;-1.010;2023-02-22T00:11:59;100249.36;;;6.94;79.92
62946;BME280;52164;52.212;-1.010;2023-02-22T00:14:24;100252.58;;;6.97;80.02
62946;BME280;52164;52.212;-1.010;2023-02-22T00:16:51;100254.38;;;6.99;79.82
62946;BME280;52164;52.212;-1.010;2023-02-22T00:19:16;100259.54;;;7.01;79.76
62946;BME280;52164;52.212;-1.010;2023-02-22T00:21:42;100256.54;;;7.02;79.91
62946;BME280;52164;52.212;-1.010;2023-02-22T00:24:08;100258.02;;;7.08;79.88
62946;BME280;52164;52.212;-1.010;2023-02-22T00:26:48;100255.38;;;7.11;79.76
62946;BME280;52164;52.212;-1.010;2023-02-22T00:29:13;100253.82;;;7.14;79.70
62946;BME280;52164;52.212;-1.010;2023-02-22T00:31:38;100257.02;;;7.15;79.34
62946;BME280;52164;52.212;-1.010;2023-02-22T00:34:04;100257.55;;;7.16;79.77
62946;BME280;52164;52.212;-1.010;2023-02-22T00:36:29;100253.85;;;7.18;79.81
62946;BME280;52164;52.212;-1.010;2023-02-22T00:38:54;100254.60;;;7.22;79.59
62946;BME280;52164;52.212;-1.010;2023-02-22T00:41:20;100258.89;;;7.23;79.57
62946;BME280;52164;52.212;-1.010;2023-02-22T00:43:45;100260.66;;;7.23;79.38
62946;BME280;52164;52.212;-1.010;2023-02-22T00:46:13;100259.26;;;7.26;79.58
62946;BME280;52164;52.212;-1.010;2023-02-22T00:48:38;100255.52;;;7.26;79.38
62946;BME280;52164;52.212;-1.010;2023-02-22T00:51:04;100251.27;;;7.27;79.40
62946;BME280;52164;52.212;-1.010;2023-02-22T00:53:29;100250.20;;;7.27;79.36
62946;BME280;52164;52.212;-1.010;2023-02-22T00:55:55;100246.14;;;7.27;79.14
62946;BME280;52164;52.212;-1.010;2023-02-22T00:58:20;100244.34;;;7.25;79.41
62946;BME280;52164;52.212;-1.010;2023-02-22T01:00:46;100242.17;;;7.22;79.25
62946;BME280;52164;52.212;-1.010;2023-02-22T01:03:12;100236.81;;;7.18;78.99
62946;BME280;52164;52.212;-1.010;2023-02-22T01:05:39;100234.64;;;7.12;79.34
62946;BME280;52164;52.212;-1.010;2023-02-22T01:08:05;100235.47;;;7.07;79.16
62946;BME280;52164;52.212;-1.010;2023-02-22T01:10:32;100226.39;;;7.04;79.40
62946;BME280;52164;52.212;-1.010;2023-02-22T01:12:58;100227.95;;;7.00;79.37
62946;BME280;52164;52.212;-1.010;2023-02-22T01:15:24;100224.02;;;6.97;79.58
62946;BME280;52164;52.212;-1.010;2023-02-22T01:17:53;100225.58;;;6.93;79.63
62946;BME280;52164;52.212;-1.010;2023-02-22T01:20:19;100222.70;;;6.90;79.83
62946;BME280;52164;52.212;-1.010;2023-02-22T01:22:47;100222.48;;;6.86;79.61
62946;BME280;52164;52.212;-1.010;2023-02-22T01:25:15;100221.89;;;6.81;79.47
62946;BME280;52164;52.212;-1.010;2023-02-22T01:27:41;100219.73;;;6.77;79.61
62946;BME280;52164;52.212;-1.010;2023-02-22T01:30:06;100209.05;;;6.74;79.58
62946;BME280;52164;52.212;-1.010;2023-02-22T01:32:33;100208.68;;;6.73;79.81
62946;BME280;52164;52.212;-1.010;2023-02-22T01:34:59;100212.93;;;6.71;79.94
62946;BME280;52164;52.212;-1.010;2023-02-22T01:37:24;100207.98;;;6.72;80.23
62946;BME280;52164;52.212;-1.010;2023-02-22T01:39:50;100203.36;;;6.72;80.17
62946;BME280;52164;52.212;-1.010;2023-02-22T01:42:15;100203.02;;;6.74;80.31
62946;BME280;52164;52.212;-1.010;2023-02-22T01:44:40;100201.96;;;6.74;80.59
62946;BME280;52164;52.212;-1.010;2023-02-22T01:47:06;100201.27;;;6.77;80.44
62946;BME280;52164;52.212;-1.010;2023-02-22T01:49:35;100199.55;;;6.81;80.86
62946;BME280;52164;52.212;-1.010;2023-02-22T01:52:05;100196.38;;;6.83;80.73
62946;BME280;52164;52.212;-1.010;2023-02-22T01:54:35;100194.44;;;6.85;80.58
62946;BME280;52164;52.212;-1.010;2023-02-22T01:59:27;100194.84;;;6.89;81.03
62946;BME280;52164;52.212;-1.010;2023-02-22T02:01:53;100192.39;;;6.93;80.94
62946;BME280;52164;52.212;-1.010;2023-02-22T02:04:19;100196.85;;;6.95;80.82
62946;BME280;52164;52.212;-1.010;2023-02-22T02:06:49;100197.22;;;6.96;80.87
62946;BME280;52164;52.212;-1.010;2023-02-22T02:09:25;100196.00;;;6.98;81.09
62946;BME280;52164;52.212;-1.010;2023-02-22T02:11:54;100194.77;;;7.00;81.04
62946;BME280;52164;52.212;-1.010;2023-02-22T02:14:19;100188.21;;;7.02;81.14
62946;BME280;52164;52.212;-1.010;2023-02-22T02:16:46;100187.88;;;7.04;81.11
62946;BME280;52164;52.212;-1.010;2023-02-22T02:19:47;100187.20;;;7.07;81.14
62946;BME280;52164;52.212;-1.010;2023-02-22T02:24:34;100181.02;;;7.11;81.14
62946;BME280;52164;52.212;-1.010;2023-02-22T02:30:29;100178.76;;;7.15;80.88
62946;BME280;52164;52.212;-1.010;2023-02-22T02:32:51;100178.23;;;7.18;81.08
62946;BME280;52164;52.212;-1.010;2023-02-22T02:35:37;100175.59;;;7.19;80.59
62946;BME280;52164;52.212;-1.010;2023-02-22T02:38:38;100176.65;;;7.18;80.69
62946;BME280;52164;52.212;-1.010;2023-02-22T02:41:23;100170.80;;;7.18;80.90
62946;BME280;52164;52.212;-1.010;2023-02-22T02:43:52;100167.77;;;7.18;80.55
62946;BME280;52164;52.212;-1.010;2023-02-22T02:46:20;100170.77;;;7.15;80.45
62946;BME280;52164;52.212;-1.010;2023-02-22T02:48:50;100174.29;;;7.11;80.47
62946;BME280;52164;52.212;-1.010;2023-02-22T02:51:18;100168.05;;;7.08;80.61
62946;BME280;52164;52.212;-1.010;2023-02-22T02:53:45;100168.36;;;7.04;80.21
62946;BME280;52164;52.212;-1.010;2023-02-22T02:56:12;100163.52;;;6.99;80.79
62946;BME280;52164;52.212;-1.010;2023-02-22T02:58:45;100159.78;;;6.96;80.76
62946;BME280;52164;52.212;-1.010;2023-02-22T03:01:13;100157.65;;;6.96;80.86
62946;BME280;52164;52.212;-1.010;2023-02-22T03:08:50;100151.10;;;6.96;81.02
62946;BME280;52164;52.212;-1.010;2023-02-22T03:11:17;100146.81;;;6.95;81.08
62946;BME280;52164;52.212;-1.010;2023-02-22T03:17:03;100145.05;;;6.96;81.35
62946;BME280;52164;52.212;-1.010;2023-02-22T03:19:20;100146.66;;;6.98;81.52
62946;BME280;52164;52.212;-1.010;2023-02-22T03:24:19;100142.06;;;6.98;81.39
62946;BME280;52164;52.212;-1.010;2023-02-22T03:26:48;100135.52;;;6.99;81.52
62946;BME280;52164;52.212;-1.010;2023-02-22T03:29:17;100130.89;;;7.01;81.37
62946;BME280;52164;52.212;-1.010;2023-02-22T03:31:45;100125.21;;;7.00;81.39
62946;BME280;52164;52.212;-1.010;2023-02-22T03:34:16;100126.09;;;6.97;80.86
62946;BME280;52164;52.212;-1.010;2023-02-22T03:36:44;100122.69;;;6.95;81.19
62946;BME280;52164;52.212;-1.010;2023-02-22T03:39:13;100121.45;;;6.94;81.26
62946;BME280;52164;52.212;-1.010;2023-02-22T03:41:40;100118.77;;;6.94;81.56
62946;BME280;52164;52.212;-1.010;2023-02-22T03:44:09;100121.45;;;6.96;81.23
62946;BME280;52164;52.212;-1.010;2023-02-22T03:46:37;100119.48;;;6.94;80.93
62946;BME280;52164;52.212;-1.010;2023-02-22T03:49:04;100119.98;;;6.91;81.17
62946;BME280;52164;52.212;-1.010;2023-02-22T03:51:33;100119.27;;;6.89;81.21
62946;BME280;52164;52.212;-1.010;2023-02-22T03:53:59;100116.44;;;6.90;80.98
62946;BME280;52164;52.212;-1.010;2023-02-22T03:56:27;100118.02;;;6.87;81.27
62946;BME280;52164;52.212;-1.010;2023-02-22T03:59:06;100113.41;;;6.87;81.15
62946;BME280;52164;52.212;-1.010;2023-02-22T04:01:32;100115.86;;;6.85;81.24
62946;BME280;52164;52.212;-1.010;2023-02-22T04:03:57;100112.30;;;6.84;81.42
62946;BME280;52164;52.212;-1.010;2023-02-22T04:06:24;100112.30;;;6.84;81.37
62946;BME280;52164;52.212;-1.010;2023-02-22T04:08:49;100108.23;;;6.84;81.37
62946;BME280;52164;52.212;-1.010;2023-02-22T04:11:14;100108.05;;;6.84;81.57
62946;BME280;52164;52.212;-1.010;2023-02-22T04:13:40;100104.84;;;6.82;80.89
62946;BME280;52164;52.212;-1.010;2023-02-22T04:16:06;100103.05;;;6.81;81.14
62946;BME280;52164;52.212;-1.010;2023-02-22T04:18:31;100100.58;;;6.81;81.12
62946;BME280;52164;52.212;-1.010;2023-02-22T04:20:56;100101.47;;;6.82;81.27
62946;BME280;52164;52.212;-1.010;2023-02-22T04:23:21;100099.00;;;6.82;81.39
62946;BME280;52164;52.212;-1.010;2023-02-22T04:25:47;100099.88;;;6.82;81.18
62946;BME280;52164;52.212;-1.010;2023-02-22T04:28:12;100098.28;;;6.81;81.21
62946;BME280;52164;52.212;-1.010;2023-02-22T04:30:38;100092.41;;;6.80;81.32
62946;BME280;52164;52.212;-1.010;2023-02-22T04:33:03;100098.27;;;6.81;81.67
62946;BME280;52164;52.212;-1.010;2023-02-22T04:35:28;100095.98;;;6.82;81.69
62946;BME280;52164;52.212;-1.010;2023-02-22T04:37:53;100095.99;;;6.84;81.98
62946;BME280;52164;52.212;-1.010;2023-02-22T04:40:19;100092.27;;;6.85;81.55
62946;BME280;52164;52.212;-1.010;2023-02-22T04:42:44;100089.63;;;6.87;81.77
62946;BME280;52164;52.212;-1.010;2023-02-22T04:45:10;100082.35;;;6.87;81.75
62946;BME280;52164;52.212;-1.010;2023-02-22T04:47:35;100082.53;;;6.88;81.62
62946;BME280;52164;52.212;-1.010;2023-02-22T04:50:02;100082.00;;;6.87;81.89
62946;BME280;52164;52.212;-1.010;2023-02-22T04:52:27;100075.77;;;6.85;81.81
62946;BME280;52164;52.212;-1.010;2023-02-22T04:54:53;100079.84;;;6.83;81.71
62946;BME280;52164;52.212;-1.010;2023-02-22T04:57:18;100073.77;;;6.80;81.98
62946;BME280;52164;52.212;-1.010;2023-02-22T04:59:46;100072.52;;;6.78;82.15
62946;BME280;52164;52.212;-1.010;2023-02-22T05:02:11;100070.20;;;6.76;82.14
62946;BME280;52164;52.212;-1.010;2023-02-22T05:04:37;100067.52;;;6.73;81.96
62946;BME280;52164;52.212;-1.010;2023-02-22T05:07:03;100070.33;;;6.70;82.35
62946;BME280;52164;52.212;-1.010;2023-02-22T05:09:28;100070.85;;;6.69;82.13
62946;BME280;52164;52.212;-1.010;2023-02-22T05:11:53;100070.84;;;6.67;82.09
62946;BME280;52164;52.212;-1.010;2023-02-22T05:14:19;100069.73;;;6.64;82.46
62946;BME280;52164;52.212;-1.010;2023-02-22T05:16:47;100071.46;;;6.59;82.45
62946;BME280;52164;52.212;-1.010;2023-02-22T05:19:14;100072.33;;;6.56;82.69
62946;BME280;52164;52.212;-1.010;2023-02-22T05:21:39;100071.42;;;6.53;82.64
62946;BME280;52164;52.212;-1.010;2023-02-22T05:24:05;100067.31;;;6.51;82.64
62946;BME280;52164;52.212;-1.010;2023-02-22T05:26:30;100062.52;;;6.49;82.83
62946;BME280;52164;52.212;-1.010;2023-02-22T05:28:55;100064.11;;;6.49;82.99
62946;BME280;52164;52.212;-1.010;2023-02-22T05:31:20;100060.04;;;6.50;83.03
62946;BME280;52164;52.212;-1.010;2023-02-22T05:33:46;100059.88;;;6.51;82.96
62946;BME280;52164;52.212;-1.010;2023-02-22T05:36:12;100058.80;;;6.50;82.81
62946;BME280;52164;52.212;-1.010;2023-02-22T05:38:38;100060.23;;;6.49;83.03
62946;BME280;52164;52.212;-1.010;2023-02-22T05:41:09;100061.27;;;6.49;82.73
62946;BME280;52164;52.212;-1.010;2023-02-22T05:43:35;100059.69;;;6.49;83.21
62946;BME280;52164;52.212;-1.010;2023-02-22T05:46:03;100062.88;;;6.50;83.08
62946;BME280;52164;52.212;-1.010;2023-02-22T05:48:29;100062.17;;;6.49;82.91
62946;BME280;52164;52.212;-1.010;2023-02-22T05:50:55;100062.88;;;6.50;83.03
62946;BME280;52164;52.212;-1.010;2023-02-22T05:53:20;100059.87;;;6.50;82.98
62946;BME280;52164;52.212;-1.010;2023-02-22T05:55:47;100058.09;;;6.50;82.97
62946;BME280;52164;52.212;-1.010;2023-02-22T05:58:12;100053.33;;;6.52;83.20
62946;BME280;52164;52.212;-1.010;2023-02-22T06:00:40;100052.66;;;6.56;83.47
62946;BME280;52164;52.212;-1.010;2023-02-22T06:03:06;100053.23;;;6.60;83.32
62946;BME280;52164;52.212;-1.010;2023-02-22T06:05:33;100053.61;;;6.64;82.99
62946;BME280;52164;52.212;-1.010;2023-02-22T06:07:58;100052.23;;;6.67;83.17
62946;BME280;52164;52.212;-1.010;2023-02-22T06:10:24;100050.80;;;6.68;83.02
62946;BME280;52164;52.212;-1.010;2023-02-22T06:12:49;100045.86;;;6.70;83.05
62946;BME280;52164;52.212;-1.010;2023-02-22T06:15:15;100045.14;;;6.71;83.31
62946;BME280;52164;52.212;-1.010;2023-02-22T06:17:40;100042.15;;;6.72;83.02
62946;BME280;52164;52.212;-1.010;2023-02-22T06:20:06;100045.89;;;6.74;83.34
62946;BME280;52164;52.212;-1.010;2023-02-22T06:22:32;100042.70;;;6.75;83.19
62946;BME280;52164;52.212;-1.010;2023-02-22T06:24:57;100045.37;;;6.76;83.09
62946;BME280;52164;52.212;-1.010;2023-02-22T06:27:22;100044.67;;;6.77;82.99
62946;BME280;52164;52.212;-1.010;2023-02-22T06:29:48;100044.85;;;6.77;82.94
62946;BME280;52164;52.212;-1.010;2023-02-22T06:32:13;100047.52;;;6.79;83.00
62946;BME280;52164;52.212;-1.010;2023-02-22T06:34:38;100046.27;;;6.78;82.98
62946;BME280;52164;52.212;-1.010;2023-02-22T06:37:05;100043.06;;;6.77;82.72
62946;BME280;52164;52.212;-1.010;2023-02-22T06:39:30;100043.23;;;6.74;82.75
62946;BME280;52164;52.212;-1.010;2023-02-22T06:41:55;100043.37;;;6.70;82.51
62946;BME280;52164;52.212;-1.010;2023-02-22T06:44:21;100045.30;;;6.66;82.64
62946;BME280;52164;52.212;-1.010;2023-02-22T06:46:48;100044.91;;;6.63;82.87
62946;BME280;52164;52.212;-1.010;2023-02-22T06:49:15;100041.67;;;6.58;82.97
62946;BME280;52164;52.212;-1.010;2023-02-22T06:51:41;100040.95;;;6.56;82.73
62946;BME280;52164;52.212;-1.010;2023-02-22T06:54:06;100034.17;;;6.52;82.69
62946;BME280;52164;52.212;-1.010;2023-02-22T06:56:32;100035.77;;;6.50;83.00
62946;BME280;52164;52.212;-1.010;2023-02-22T06:58:57;100031.12;;;6.47;83.28
62946;BME280;52164;52.212;-1.010;2023-02-22T07:01:22;100036.95;;;6.44;82.97
62946;BME280;52164;52.212;-1.010;2023-02-22T07:03:48;100034.23;;;6.39;83.01
62946;BME280;52164;52.212;-1.010;2023-02-22T07:06:14;100039.86;;;6.33;83.02
62946;BME280;52164;52.212;-1.010;2023-02-22T07:08:39;100038.77;;;6.30;83.09
62946;BME280;52164;52.212;-1.010;2023-02-22T07:11:04;100041.02;;;6.27;83.45
62946;BME280;52164;52.212;-1.010;2023-02-22T07:13:30;100041.70;;;6.23;83.39
62946;BME280;52164;52.212;-1.010;2023-02-22T07:15:55;100042.77;;;6.23;83.37
62946;BME280;52164;52.212;-1.010;2023-02-22T07:18:20;100040.09;;;6.22;83.18
62946;BME280;52164;52.212;-1.010;2023-02-22T07:20:46;100038.33;;;6.22;83.43
62946;BME280;52164;52.212;-1.010;2023-02-22T07:23:13;100039.06;;;6.25;83.27
62946;BME280;52164;52.212;-1.010;2023-02-22T07:25:39;100039.61;;;6.26;83.46
62946;BME280;52164;52.212;-1.010;2023-02-22T07:28:04;100038.02;;;6.28;83.68
62946;BME280;52164;52.212;-1.010;2023-02-22T07:30:30;100040.19;;;6.30;83.76
62946;BME280;52164;52.212;-1.010;2023-02-22T07:32:57;100044.30;;;6.33;83.24
62946;BME280;52164;52.212;-1.010;2023-02-22T07:35:24;100044.65;;;6.35;83.34
62946;BME280;52164;52.212;-1.010;2023-02-22T07:37:50;100047.02;;;6.39;83.46
62946;BME280;52164;52.212;-1.010;2023-02-22T07:40:16;100047.40;;;6.44;83.42
62946;BME280;52164;52.212;-1.010;2023-02-22T07:45:28;100050.68;;;6.53;83.56
62946;BME280;52164;52.212;-1.010;2023-02-22T07:47:54;100051.77;;;6.57;83.31
62946;BME280;52164;52.212;-1.010;2023-02-22T07:50:20;100058.89;;;6.61;83.03
62946;BME280;52164;52.212;-1.010;2023-02-22T07:52:46;100059.62;;;6.62;83.09
62946;BME280;52164;52.212;-1.010;2023-02-22T07:55:16;100058.21;;;6.64;82.97
62946;BME280;52164;52.212;-1.010;2023-02-22T07:57:42;100057.89;;;6.66;83.24
62946;BME280;52164;52.212;-1.010;2023-02-22T08:00:09;100061.29;;;6.70;83.24
62946;BME280;52164;52.212;-1.010;2023-02-22T08:02:34;100062.21;;;6.75;83.01
62946;BME280;52164;52.212;-1.010;2023-02-22T08:05:00;100065.98;;;6.80;82.68
62946;BME280;52164;52.212;-1.010;2023-02-22T08:07:25;100067.61;;;6.83;82.95
62946;BME280;52164;52.212;-1.010;2023-02-22T08:09:50;100073.30;;;6.85;83.02
62946;BME280;52164;52.212;-1.010;2023-02-22T08:12:18;100070.83;;;6.88;83.09
62946;BME280;52164;52.212;-1.010;2023-02-22T08:14:44;100073.15;;;6.91;82.93
62946;BME280;52164;52.212;-1.010;2023-02-22T08:17:09;100072.65;;;6.93;82.91
62946;BME280;52164;52.212;-1.010;2023-02-22T08:19:34;100071.07;;;6.94;83.00
62946;BME280;52164;52.212;-1.010;2023-02-22T08:22:00;100067.16;;;6.95;82.74
62946;BME280;52164;52.212;-1.010;2023-02-22T08:24:25;100072.67;;;6.95;82.91
62946;BME280;52164;52.212;-1.010;2023-02-22T08:26:50;100070.71;;;6.96;82.67
62946;BME280;52164;52.212;-1.010;2023-02-22T08:29:15;100064.86;;;6.96;82.69
62946;BME280;52164;52.212;-1.010;2023-02-22T08:31:40;100070.21;;;6.99;83.07
62946;BME280;52164;52.212;-1.010;2023-02-22T08:34:06;100070.42;;;7.04;83.07
62946;BME280;52164;52.212;-1.010;2023-02-22T08:36:31;100072.76;;;7.08;82.88
62946;BME280;52164;52.212;-1.010;2023-02-22T08:38:58;100073.50;;;7.14;82.99
62946;BME280;52164;52.212;-1.010;2023-02-22T08:41:23;100073.89;;;7.18;82.74
62946;BME280;52164;52.212;-1.010;2023-02-22T08:43:48;100076.77;;;7.23;82.71
62946;BME280;52164;52.212;-1.010;2023-02-22T08:46:15;100078.36;;;7.23;82.49
62946;BME280;52164;52.212;-1.010;2023-02-22T08:48:50;100074.10;;;7.22;82.64
62946;BME280;52164;52.212;-1.010;2023-02-22T08:51:15;100073.91;;;7.21;82.97
62946;BME280;52164;52.212;-1.010;2023-02-22T08:53:40;100076.59;;;7.23;82.73
62946;BME280;52164;52.212;-1.010;2023-02-22T08:56:06;100076.42;;;7.26;82.76
62946;BME280;52164;52.212;-1.010;2023-02-22T08:58:31;100073.08;;;7.30;82.66
62946;BME280;52164;52.212;-1.010;2023-02-22T09:00:56;100076.29;;;7.33;82.47
62946;BME280;52164;52.212;-1.010;2023-02-22T09:03:26;100077.92;;;7.36;82.61
62946;BME280;52164;52.212;-1.010;2023-02-22T09:05:52;100077.20;;;7.37;82.19
62946;BME280;52164;52.212;-1.010;2023-02-22T09:08:18;100076.32;;;7.36;82.35
62946;BME280;52164;52.212;-1.010;2023-02-22T09:10:43;100074.55;;;7.37;82.72
62946;BME280;52164;52.212;-1.010;2023-02-22T09:13:09;100074.91;;;7.39;82.45
62946;BME280;52164;52.212;-1.010;2023-02-22T09:15:34;100075.27;;;7.39;82.11
62946;BME280;52164;52.212;-1.010;2023-02-22T09:18:00;100071.71;;;7.41;82.24
62946;BME280;52164;52.212;-1.010;2023-02-22T09:20:26;100070.50;;;7.43;82.11
62946;BME280;52164;52.212;-1.010;2023-02-22T09:22:51;100073.16;;;7.45;82.15
62946;BME280;52164;52.212;-1.010;2023-02-22T09:25:17;100080.80;;;7.47;82.17
62946;BME280;52164;52.212;-1.010;2023-02-22T09:27:46;100082.41;;;7.46;82.36
62946;BME280;52164;52.212;-1.010;2023-02-22T09:30:28;100086.31;;;7.47;82.19
62946;BME280;52164;52.212;-1.010;2023-02-22T09:32:56;100085.61;;;7.47;82.03
62946;BME280;52164;52.212;-1.010;2023-02-22T09:35:22;100081.34;;;7.48;81.93
62946;BME280;52164;52.212;-1.010;2023-02-22T09:37:51;100082.58;;;7.47;81.89
62946;BME280;52164;52.212;-1.010;2023-02-22T09:40:16;100079.22;;;7.46;81.89
62946;BME280;52164;52.212;-1.010;2023-02-22T09:42:55;100078.52;;;7.49;81.93
62946;BME280;52164;52.212;-1.010;2023-02-22T09:45:22;100078.37;;;7.54;82.00
62946;BME280;52164;52.212;-1.010;2023-02-22T09:47:48;100088.16;;;7.58;81.81
62946;BME280;52164;52.212;-1.010;2023-02-22T09:50:17;100091.01;;;7.61;81.76
62946;BME280;52164;52.212;-1.010;2023-02-22T09:53:52;100083.05;;;7.66;81.85
62946;BME280;52164;52.212;-1.010;2023-02-22T09:57:58;100084.89;;;7.80;81.61
62946;BME280;52164;52.212;-1.010;2023-02-22T10:00:27;100081.52;;;7.84;81.44
62946;BME280;52164;52.212;-1.010;2023-02-22T10:05:46;100085.49;;;7.98;81.38
62946;BME280;52164;52.212;-1.010;2023-02-22T10:08:14;100085.16;;;8.05;81.23
62946;BME280;52164;52.212;-1.010;2023-02-22T10:10:40;100088.57;;;8.13;81.34
62946;BME280;52164;52.212;-1.010;2023-02-22T10:15:58;100091.27;;;8.26;80.98
62946;BME280;52164;52.212;-1.010;2023-02-22T10:20:45;100092.71;;;8.34;81.03
62946;BME280;52164;52.212;-1.010;2023-02-22T10:21:47;100086.14;;;8.37;80.96
62946;BME280;52164;52.212;-1.010;2023-02-22T10:24:17;100090.23;;;8.39;80.69
62946;BME280;52164;52.212;-1.010;2023-02-22T10:26:41;100092.20;;;8.37;80.75
62946;BME280;52164;52.212;-1.010;2023-02-22T10:29:16;100096.27;;;8.36;80.85
62946;BME280;52164;52.212;-1.010;2023-02-22T10:31:48;100101.95;;;8.32;80.71
62946;BME280;52164;52.212;-1.010;2023-02-22T10:34:17;100096.42;;;8.27;80.40
62946;BME280;52164;52.212;-1.010;2023-02-22T10:36:45;100105.84;;;8.25;80.74
62946;BME280;52164;52.212;-1.010;2023-02-22T10:39:29;100102.10;;;8.22;80.74
62946;BME280;52164;52.212;-1.010;2023-02-22T10:41:56;100105.29;;;8.19;80.86
62946;BME280;52164;52.212;-1.010;2023-02-22T10:44:22;100103.70;;;8.19;80.85
62946;BME280;52164;52.212;-1.010;2023-02-22T10:46:47;100108.67;;;8.20;80.62
62946;BME280;52164;52.212;-1.010;2023-02-22T10:49:17;100108.67;;;8.22;80.56
62946;BME280;52164;52.212;-1.010;2023-02-22T10:51:49;100108.69;;;8.23;80.35
62946;BME280;52164;52.212;-1.010;2023-02-22T10:54:22;100112.42;;;8.28;80.79
62946;BME280;52164;52.212;-1.010;2023-02-22T10:56:51;100116.02;;;8.37;80.49
62946;BME280;52164;52.212;-1.010;2023-02-22T10:59:50;100112.64;;;8.43;80.38
62946;BME280;52164;52.212;-1.010;2023-02-22T11:02:20;100114.83;;;8.47;80.12
62946;BME280;52164;52.212;-1.010;2023-02-22T11:04:55;100112.71;;;8.54;80.28
62946;BME280;52164;52.212;-1.010;2023-02-22T11:07:24;100113.23;;;8.58;80.17
62946;BME280;52164;52.212;-1.010;2023-02-22T11:09:59;100115.74;;;8.61;80.00
62946;BME280;52164;52.212;-1.010;2023-02-22T11:12:28;100116.98;;;8.61;80.15
62946;BME280;52164;52.212;-1.010;2023-02-22T11:14:54;100114.69;;;8.62;79.92
62946;BME280;52164;52.212;-1.010;2023-02-22T11:17:25;100113.08;;;8.66;79.79
62946;BME280;52164;52.212;-1.010;2023-02-22T11:19:52;100112.20;;;8.74;79.82
62946;BME280;52164;52.212;-1.010;2023-02-22T11:22:19;100113.27;;;8.81;79.52
62946;BME280;52164;52.212;-1.010;2023-02-22T11:24:47;100115.76;;;8.82;79.41
62946;BME280;52164;52.212;-1.010;2023-02-22T11:27:31;100116.11;;;8.82;79.42
62946;BME280;52164;52.212;-1.010;2023-02-22T11:30:05;100117.37;;;8.90;79.02
62946;BME280;52164;52.212;-1.010;2023-02-22T11:32:32;100117.02;;;8.98;78.89
62946;BME280;52164;52.212;-1.010;2023-02-22T11:35:16;100119.69;;;9.06;78.63
62946;BME280;52164;52.212;-1.010;2023-02-22T11:37:42;100119.34;;;9.03;78.98
62946;BME280;52164;52.212;-1.010;2023-02-22T11:40:16;100119.52;;;8.95;78.84
62946;BME280;52164;52.212;-1.010;2023-02-22T11:42:46;100121.11;;;8.91;78.61
62946;BME280;52164;52.212;-1.010;2023-02-22T11:45:13;100121.45;;;8.84;78.51
62946;BME280;52164;52.212;-1.010;2023-02-22T11:48:17;100122.70;;;8.85;78.50
62946;BME280;52164;52.212;-1.010;2023-02-22T11:52:53;100126.98;;;8.94;78.46
62946;BME280;52164;52.212;-1.010;2023-02-22T11:55:23;100123.59;;;9.01;78.34
62946;BME280;52164;52.212;-1.010;2023-02-22T11:57:54;100126.81;;;9.07;78.21
62946;BME280;52164;52.212;-1.010;2023-02-22T12:05:11;100129.84;;;9.06;78.03
62946;BME280;52164;52.212;-1.010;2023-02-22T12:08:21;100133.55;;;8.82;77.49
62946;BME280;52164;52.212;-1.010;2023-02-22T12:10:54;100141.90;;;8.71;77.30
62946;BME280;52164;52.212;-1.010;2023-02-22T12:15:53;100139.41;;;8.65;77.23
62946;BME280;52164;52.212;-1.010;2023-02-22T12:20:49;100139.06;;;8.76;76.56
62946;BME280;52164;52.212;-1.010;2023-02-22T12:23:19;100138.36;;;8.82;76.22
62946;BME280;52164;52.212;-1.010;2023-02-22T12:25:51;100138.72;;;8.83;76.03
62946;BME280;52164;52.212;-1.010;2023-02-22T12:28:24;100147.09;;;8.90;75.51
62946;BME280;52164;52.212;-1.010;2023-02-22T12:30:55;100151.73;;;8.92;75.35
62946;BME280;52164;52.212;-1.010;2023-02-22T12:33:25;100151.37;;;8.95;75.25
62946;BME280;52164;52.212;-1.010;2023-02-22T12:35:52;100150.13;;;9.04;75.13
62946;BME280;52164;52.212;-1.010;2023-02-22T12:38:21;100152.79;;;9.14;74.84
62946;BME280;52164;52.212;-1.010;2023-02-22T12:40:53;100145.86;;;9.24;74.65
62946;BME280;52164;52.212;-1.010;2023-02-22T12:43:26;100152.27;;;9.36;74.48
62946;BME280;52164;52.212;-1.010;2023-02-22T12:46:02;100150.98;;;9.51;74.15
62946;BME280;52164;52.212;-1.010;2023-02-22T12:48:39;100150.60;;;9.73;74.12
62946;BME280;52164;52.212;-1.010;2023-02-22T12:53:54;100149.70;;;9.74;73.23
62946;BME280;52164;52.212;-1.010;2023-02-22T12:56:38;100150.41;;;9.78;72.58
62946;BME280;52164;52.212;-1.010;2023-02-22T12:59:11;100155.73;;;9.80;72.42
62946;BME280;52164;52.212;-1.010;2023-02-22T13:01:41;100162.71;;;9.74;72.09
62946;BME280;52164;52.212;-1.010;2023-02-22T13:04:08;100164.34;;;9.60;71.99
62946;BME280;52164;52.212;-1.010;2023-02-22T13:06:39;100165.08;;;9.48;72.09
62946;BME280;52164;52.212;-1.010;2023-02-22T13:11:21;100170.24;;;9.37;72.25
62946;BME280;52164;52.212;-1.010;2023-02-22T13:16:46;100169.84;;;9.75;71.34
62946;BME280;52164;52.212;-1.010;2023-02-22T13:19:25;100164.45;;;9.89;70.64
62946;BME280;52164;52.212;-1.010;2023-02-22T13:24:54;100157.20;;;10.24;69.54
62946;BME280;52164;52.212;-1.010;2023-02-22T13:27:07;100158.20;;;10.44;69.57
62946;BME280;52164;52.212;-1.010;2023-02-22T13:29:36;100153.78;;;10.70;68.78
62946;BME280;52164;52.212;-1.010;2023-02-22T13:34:48;100154.10;;;11.01;67.85
62946;BME280;52164;52.212;-1.010;2023-02-22T13:37:20;100150.64;;;10.85;67.00
62946;BME280;52164;52.212;-1.010;2023-02-22T13:40:25;100165.27;;;10.58;67.31
62946;BME280;52164;52.212;-1.010;2023-02-22T13:45:03;100152.73;;;10.22;66.56
62946;BME280;52164;52.212;-1.010;2023-02-22T13:50:24;100156.39;;;10.51;66.46
62946;BME280;52164;52.212;-1.010;2023-02-22T13:52:49;100164.17;;;10.62;65.96
62946;BME280;52164;52.212;-1.010;2023-02-22T13:55:18;100162.00;;;10.69;65.92
62946;BME280;52164;52.212;-1.010;2023-02-22T13:57:45;100160.73;;;10.71;65.56